sensor_id;sensor_type;location;lat;lon;timestamp;temperature;humidity
23102;DHT22;11720;51.214;22.574;2023-05-14T00:01:26;9.50;99.90
23102;DHT22;11720;51.214;22.574;2023-05-14T00:06:18;9.50;99.90
23102;DHT22;11720;51.214;22.574;2023-05-14T00:08:44;9.40;99.90
23102;DHT22;11720;51.214;22.574;2023-05-14T00:13:36;9.40;99.90
23102;DHT22;11720;51.214;22.574;2023-05-14T00:16:02;9.40;99.90
23102;DHT22;11720;51.214;22.574;2023-05-14T00:18:28;9.40;99.90
23102;DHT22;11720;51.214;22.574;2023-05-14T00:20:53;9.30;99.90
23102;DHT22;11720;51.214;22.574;2023-05-14T00:23:22;9.30;99.90
23102;DHT22;11720;51.214;22.574;2023-05-14T00:25:48;9.20;99.90
23102;DHT22;11720;51.214;22.574;2023-05-14T00:28:14;9.20;99.90
23102;DHT22;11720;51.214;22.574;2023-05-14T00:30:41;9.20;99.90
23102;DHT22;11720;51.214;22.574;2023-05-14T00:33:07;9.20;99.90
23102;DHT22;11720;51.214;22.574;2023-05-14T00:38:00;8.60;99.90
23102;DHT22;11720;51.214;22.574;2023-05-14T00:40:27;9.10;99.90
23102;DHT22;11720;51.214;22.574;2023-05-14T00:42:53;8.60;99.90
23102;DHT22;11720;51.214;22.574;2023-05-14T00:45:19;9.00;99.90
23102;DHT22;11720;51.214;22.574;2023-05-14T00:47:45;9.00;99.90
23102;DHT22;11720;51.214;22.574;2023-05-14T00:50:13;8.60;99.90
23102;DHT22;11720;51.214;22.574;2023-05-14T00:55:06;8.90;99.90
23102;DHT22;11720;51.214;22.574;2023-05-14T00:57:33;8.90;99.90
23102;DHT22;11720;51.214;22.574;2023-05-14T01:00:01;8.80;99.90
23102;DHT22;11720;51.214;22.574;2023-05-14T01:04:54;8.90;99.90
23102;DHT22;11720;51.214;22.574;2023-05-14T01:10:00;9.00;99.90
23102;DHT22;11720;51.214;22.574;2023-05-14T01:12:34;8.80;99.90
23102;DHT22;11720;51.214;22.574;2023-05-14T01:15:18;8.70;99.90
23102;DHT22;11720;51.214;22.574;2023-05-14T01:17:58;8.60;99.90
23102;DHT22;11720;51.214;22.574;2023-05-14T01:20:25;8.30;99.90
23102;DHT22;11720;51.214;22.574;2023-05-14T01:22:51;8.50;99.90
23102;DHT22;11720;51.214;22.574;2023-05-14T01:28:11;8.60;99.90
23102;DHT22;11720;51.214;22.574;2023-05-14T01:31:02;8.50;99.90
23102;DHT22;11720;51.214;22.574;2023-05-14T01:33:32;8.40;99.90
23102;DHT22;11720;51.214;22.574;2023-05-14T01:35:59;8.40;99.90
23102;DHT22;11720;51.214;22.574;2023-05-14T01:38:26;8.40;99.90
23102;DHT22;11720;51.214;22.574;2023-05-14T01:40:56;8.40;99.90
23102;DHT22;11720;51.214;22.574;2023-05-14T01:43:22;8.40;99.90
23102;DHT22;11720;51.214;22.574;2023-05-14T01:45:48;8.30;99.90
23102;DHT22;11720;51.214;22.574;2023-05-14T01:48:14;8.30;99.90
23102;DHT22;11720;51.214;22.574;2023-05-14T01:50:40;8.30;99.90
23102;DHT22;11720;51.214;22.574;2023-05-14T01:53:06;8.30;99.90
23102;DHT22;11720;51.214;22.574;2023-05-14T01:55:31;8.30;99.90
23102;DHT22;11720;51.214;22.574;2023-05-14T01:57:57;8.20;99.90
23102;DHT22;11720;51.214;22.574;2023-05-14T02:00:23;8.20;99.90
23102;DHT22;11720;51.214;22.574;2023-05-14T02:02:51;8.20;99.90
23102;DHT22;11720;51.214;22.574;2023-05-14T02:05:17;8.20;99.90
23102;DHT22;11720;51.214;22.574;2023-05-14T02:07:43;8.10;99.90
23102;DHT22;11720;51.214;22.574;2023-05-14T02:10:09;8.10;99.90
23102;DHT22;11720;51.214;22.574;2023-05-14T02:12:35;8.10;99.90
23102;DHT22;11720;51.214;22.574;2023-05-14T02:15:02;8.10;99.90
23102;DHT22;11720;51.214;22.574;2023-05-14T02:17:28;8.10;99.90
23102;DHT22;11720;51.214;22.574;2023-05-14T02:19:54;8.10;99.90
23102;DHT22;11720;51.214;22.574;2023-05-14T02:22:19;8.00;99.90
23102;DHT22;11720;51.214;22.574;2023-05-14T02:27:11;7.90;99.90
23102;DHT22;11720;51.214;22.574;2023-05-14T02:29:38;7.90;99.90
23102;DHT22;11720;51.214;22.574;2023-05-14T02:32:04;7.90;99.90
23102;DHT22;11720;51.214;22.574;2023-05-14T02:34:30;7.90;99.90
23102;DHT22;11720;51.214;22.574;2023-05-14T02:39:21;7.90;99.90
23102;DHT22;11720;51.214;22.574;2023-05-14T02:44:13;7.80;99.90
23102;DHT22;11720;51.214;22.574;2023-05-14T02:46:38;7.80;99.90
23102;DHT22;11720;51.214;22.574;2023-05-14T02:51:30;7.80;99.90
23102;DHT22;11720;51.214;22.574;2023-05-14T02:56:22;8.20;99.90
23102;DHT22;11720;51.214;22.574;2023-05-14T02:58:47;7.70;99.90
23102;DHT22;11720;51.214;22.574;2023-05-14T03:06:05;7.90;99.90
23102;DHT22;11720;51.214;22.574;2023-05-14T03:10:57;7.80;99.90
23102;DHT22;11720;51.214;22.574;2023-05-14T03:18:19;8.00;99.90
23102;DHT22;11720;51.214;22.574;2023-05-14T03:20:45;8.10;99.90
23102;DHT22;11720;51.214;22.574;2023-05-14T03:23:11;8.10;99.90
23102;DHT22;11720;51.214;22.574;2023-05-14T03:25:36;8.10;99.90
23102;DHT22;11720;51.214;22.574;2023-05-14T03:28:02;8.10;99.90
23102;DHT22;11720;51.214;22.574;2023-05-14T03:30:28;8.20;99.90
23102;DHT22;11720;51.214;22.574;2023-05-14T03:32:54;8.20;99.90
23102;DHT22;11720;51.214;22.574;2023-05-14T03:35:20;8.30;99.90
23102;DHT22;11720;51.214;22.574;2023-05-14T03:37:45;8.30;99.90
23102;DHT22;11720;51.214;22.574;2023-05-14T03:40:11;8.30;99.90
23102;DHT22;11720;51.214;22.574;2023-05-14T03:42:37;8.40;99.90
23102;DHT22;11720;51.214;22.574;2023-05-14T03:45:03;8.40;99.90
23102;DHT22;11720;51.214;22.574;2023-05-14T03:47:28;8.50;99.90
23102;DHT22;11720;51.214;22.574;2023-05-14T03:49:55;8.60;99.90
23102;DHT22;11720;51.214;22.574;2023-05-14T03:52:21;8.70;99.90
23102;DHT22;11720;51.214;22.574;2023-05-14T03:54:46;8.50;99.90
23102;DHT22;11720;51.214;22.574;2023-05-14T03:57:12;8.80;99.90
23102;DHT22;11720;51.214;22.574;2023-05-14T03:59:38;8.90;99.90
23102;DHT22;11720;51.214;22.574;2023-05-14T04:02:03;8.90;99.90
23102;DHT22;11720;51.214;22.574;2023-05-14T04:04:29;9.00;99.90
23102;DHT22;11720;51.214;22.574;2023-05-14T04:06:54;9.00;99.90
23102;DHT22;11720;51.214;22.574;2023-05-14T04:09:20;9.10;99.90
23102;DHT22;11720;51.214;22.574;2023-05-14T04:11:46;9.20;99.90
23102;DHT22;11720;51.214;22.574;2023-05-14T04:14:11;9.40;99.90
23102;DHT22;11720;51.214;22.574;2023-05-14T04:16:37;9.60;99.90
23102;DHT22;11720;51.214;22.574;2023-05-14T04:19:03;9.70;99.90
23102;DHT22;11720;51.214;22.574;2023-05-14T04:21:30;9.70;99.90
23102;DHT22;11720;51.214;22.574;2023-05-14T04:23:55;9.90;99.90
23102;DHT22;11720;51.214;22.574;2023-05-14T04:26:21;10.00;99.90
23102;DHT22;11720;51.214;22.574;2023-05-14T04:28:48;10.10;99.90
23102;DHT22;11720;51.214;22.574;2023-05-14T04:31:14;10.20;99.90
23102;DHT22;11720;51.214;22.574;2023-05-14T04:33:40;10.30;99.90
23102;DHT22;11720;51.214;22.574;2023-05-14T04:36:06;10.50;99.90
23102;DHT22;11720;51.214;22.574;2023-05-14T04:38:32;10.60;99.90
23102;DHT22;11720;51.214;22.574;2023-05-14T04:40:58;10.70;99.90
23102;DHT22;11720;51.214;22.574;2023-05-14T04:43:24;10.90;99.90
23102;DHT22;11720;51.214;22.574;2023-05-14T04:45:49;11.00;99.90
23102;DHT22;11720;51.214;22.574;2023-05-14T04:48:16;11.10;99.90
23102;DHT22;11720;51.214;22.574;2023-05-14T04:50:42;11.30;99.90
23102;DHT22;11720;51.214;22.574;2023-05-14T04:53:09;11.40;99.90
23102;DHT22;11720;51.214;22.574;2023-05-14T04:55:34;11.50;99.90
23102;DHT22;11720;51.214;22.574;2023-05-14T04:58:00;11.60;99.90
23102;DHT22;11720;51.214;22.574;2023-05-14T05:00:26;11.90;99.90
23102;DHT22;11720;51.214;22.574;2023-05-14T05:02:53;12.00;99.90
23102;DHT22;11720;51.214;22.574;2023-05-14T05:05:18;12.20;99.90
23102;DHT22;11720;51.214;22.574;2023-05-14T05:07:44;12.30;99.90
23102;DHT22;11720;51.214;22.574;2023-05-14T05:10:10;12.50;99.90
23102;DHT22;11720;51.214;22.574;2023-05-14T05:12:36;12.60;99.90
23102;DHT22;11720;51.214;22.574;2023-05-14T05:15:02;12.80;99.90
23102;DHT22;11720;51.214;22.574;2023-05-14T05:17:28;13.10;99.90
23102;DHT22;11720;51.214;22.574;2023-05-14T05:19:54;13.20;99.90
23102;DHT22;11720;51.214;22.574;2023-05-14T05:22:20;13.20;99.90
23102;DHT22;11720;51.214;22.574;2023-05-14T05:27:12;13.90;99.90
23102;DHT22;11720;51.214;22.574;2023-05-14T05:34:30;13.90;99.90
23102;DHT22;11720;51.214;22.574;2023-05-14T05:39:21;14.20;99.90
23102;DHT22;11720;51.214;22.574;2023-05-14T05:41:47;14.30;99.30
23102;DHT22;11720;51.214;22.574;2023-05-14T05:44:12;14.50;97.70
23102;DHT22;11720;51.214;22.574;2023-05-14T05:46:38;14.60;97.40
23102;DHT22;11720;51.214;22.574;2023-05-14T05:49:04;14.70;96.90
23102;DHT22;11720;51.214;22.574;2023-05-14T05:53:56;14.90;96.40
23102;DHT22;11720;51.214;22.574;2023-05-14T05:56:21;15.10;95.90
23102;DHT22;11720;51.214;22.574;2023-05-14T05:58:47;15.20;95.40
23102;DHT22;11720;51.214;22.574;2023-05-14T06:01:18;15.20;95.10
23102;DHT22;11720;51.214;22.574;2023-05-14T06:03:44;15.40;94.10
23102;DHT22;11720;51.214;22.574;2023-05-14T06:08:35;15.50;93.00
23102;DHT22;11720;51.214;22.574;2023-05-14T06:11:01;15.60;91.70
23102;DHT22;11720;51.214;22.574;2023-05-14T06:13:27;15.60;92.80
23102;DHT22;11720;51.214;22.574;2023-05-14T06:15:52;15.80;92.40
23102;DHT22;11720;51.214;22.574;2023-05-14T06:18:18;16.20;93.10
23102;DHT22;11720;51.214;22.574;2023-05-14T06:20:44;16.00;91.20
23102;DHT22;11720;51.214;22.574;2023-05-14T06:23:10;16.10;89.10
23102;DHT22;11720;51.214;22.574;2023-05-14T06:25:36;16.20;89.30
23102;DHT22;11720;51.214;22.574;2023-05-14T06:28:02;16.30;87.90
23102;DHT22;11720;51.214;22.574;2023-05-14T06:30:28;16.30;87.50
23102;DHT22;11720;51.214;22.574;2023-05-14T06:32:54;16.40;87.10
23102;DHT22;11720;51.214;22.574;2023-05-14T06:35:19;16.60;85.80
23102;DHT22;11720;51.214;22.574;2023-05-14T06:37:45;16.90;83.80
23102;DHT22;11720;51.214;22.574;2023-05-14T06:40:12;16.80;82.80
23102;DHT22;11720;51.214;22.574;2023-05-14T06:42:40;17.00;84.00
23102;DHT22;11720;51.214;22.574;2023-05-14T06:45:06;17.10;80.40
23102;DHT22;11720;51.214;22.574;2023-05-14T06:47:31;17.20;79.10
23102;DHT22;11720;51.214;22.574;2023-05-14T06:49:57;17.30;76.50
23102;DHT22;11720;51.214;22.574;2023-05-14T06:52:25;17.40;74.00
23102;DHT22;11720;51.214;22.574;2023-05-14T06:54:51;17.50;73.90
23102;DHT22;11720;51.214;22.574;2023-05-14T06:57:17;17.60;74.70
23102;DHT22;11720;51.214;22.574;2023-05-14T06:59:42;17.60;76.50
23102;DHT22;11720;51.214;22.574;2023-05-14T07:02:08;17.80;74.60
23102;DHT22;11720;51.214;22.574;2023-05-14T07:04:34;17.90;71.30
23102;DHT22;11720;51.214;22.574;2023-05-14T07:07:00;17.90;69.70
23102;DHT22;11720;51.214;22.574;2023-05-14T07:09:26;17.80;70.00
23102;DHT22;11720;51.214;22.574;2023-05-14T07:11:51;17.80;68.40
23102;DHT22;11720;51.214;22.574;2023-05-14T07:14:17;17.90;69.20
23102;DHT22;11720;51.214;22.574;2023-05-14T07:16:43;18.00;68.90
23102;DHT22;11720;51.214;22.574;2023-05-14T07:19:10;18.10;70.80
23102;DHT22;11720;51.214;22.574;2023-05-14T07:21:35;18.10;69.10
23102;DHT22;11720;51.214;22.574;2023-05-14T07:24:01;18.20;67.40
23102;DHT22;11720;51.214;22.574;2023-05-14T07:26:27;18.20;68.60
23102;DHT22;11720;51.214;22.574;2023-05-14T07:28:56;18.20;69.40
23102;DHT22;11720;51.214;22.574;2023-05-14T07:31:22;18.20;69.30
23102;DHT22;11720;51.214;22.574;2023-05-14T07:33:48;18.30;67.50
23102;DHT22;11720;51.214;22.574;2023-05-14T07:36:13;18.40;67.20
23102;DHT22;11720;51.214;22.574;2023-05-14T07:38:39;18.30;68.10
23102;DHT22;11720;51.214;22.574;2023-05-14T07:41:05;18.10;69.60
23102;DHT22;11720;51.214;22.574;2023-05-14T07:43:32;18.40;67.00
23102;DHT22;11720;51.214;22.574;2023-05-14T07:45:58;18.40;67.90
23102;DHT22;11720;51.214;22.574;2023-05-14T07:48:24;18.50;66.90
23102;DHT22;11720;51.214;22.574;2023-05-14T07:50:50;18.60;68.70
23102;DHT22;11720;51.214;22.574;2023-05-14T07:53:16;18.80;67.40
23102;DHT22;11720;51.214;22.574;2023-05-14T07:55:43;19.00;66.70
23102;DHT22;11720;51.214;22.574;2023-05-14T07:58:09;19.10;64.70
23102;DHT22;11720;51.214;22.574;2023-05-14T08:00:35;19.20;63.90
23102;DHT22;11720;51.214;22.574;2023-05-14T08:03:00;19.20;65.70
23102;DHT22;11720;51.214;22.574;2023-05-14T08:05:26;19.30;63.20
23102;DHT22;11720;51.214;22.574;2023-05-14T08:07:57;19.30;61.90
23102;DHT22;11720;51.214;22.574;2023-05-14T08:10:23;19.50;62.40
23102;DHT22;11720;51.214;22.574;2023-05-14T08:12:49;19.70;62.00
23102;DHT22;11720;51.214;22.574;2023-05-14T08:15:14;19.80;59.30
23102;DHT22;11720;51.214;22.574;2023-05-14T08:17:41;20.00;58.90
23102;DHT22;11720;51.214;22.574;2023-05-14T08:20:07;20.00;57.10
23102;DHT22;11720;51.214;22.574;2023-05-14T08:22:34;20.10;57.20
23102;DHT22;11720;51.214;22.574;2023-05-14T08:24:59;20.10;55.30
23102;DHT22;11720;51.214;22.574;2023-05-14T08:27:27;20.10;56.50
23102;DHT22;11720;51.214;22.574;2023-05-14T08:29:53;20.20;55.40
23102;DHT22;11720;51.214;22.574;2023-05-14T08:32:18;20.20;55.60
23102;DHT22;11720;51.214;22.574;2023-05-14T08:34:44;20.20;54.90
23102;DHT22;11720;51.214;22.574;2023-05-14T08:37:09;20.20;56.40
23102;DHT22;11720;51.214;22.574;2023-05-14T08:39:35;20.20;57.40
23102;DHT22;11720;51.214;22.574;2023-05-14T08:42:01;20.30;58.70
23102;DHT22;11720;51.214;22.574;2023-05-14T08:44:52;20.40;58.80
23102;DHT22;11720;51.214;22.574;2023-05-14T08:47:21;20.50;57.80
23102;DHT22;11720;51.214;22.574;2023-05-14T08:49:54;20.60;56.70
23102;DHT22;11720;51.214;22.574;2023-05-14T08:52:22;20.50;56.50
23102;DHT22;11720;51.214;22.574;2023-05-14T08:54:49;20.60;57.90
23102;DHT22;11720;51.214;22.574;2023-05-14T08:57:17;20.70;57.00
23102;DHT22;11720;51.214;22.574;2023-05-14T08:59:43;20.80;56.10
23102;DHT22;11720;51.214;22.574;2023-05-14T09:02:09;20.80;56.50
23102;DHT22;11720;51.214;22.574;2023-05-14T09:04:36;20.90;57.00
23102;DHT22;11720;51.214;22.574;2023-05-14T09:07:02;20.90;56.50
23102;DHT22;11720;51.214;22.574;2023-05-14T09:09:28;21.00;55.60
23102;DHT22;11720;51.214;22.574;2023-05-14T09:11:54;21.10;56.30
23102;DHT22;11720;51.214;22.574;2023-05-14T09:14:21;21.20;57.00
23102;DHT22;11720;51.214;22.574;2023-05-14T09:16:49;21.10;56.30
23102;DHT22;11720;51.214;22.574;2023-05-14T09:19:16;21.20;57.40
23102;DHT22;11720;51.214;22.574;2023-05-14T09:21:44;21.40;57.30
23102;DHT22;11720;51.214;22.574;2023-05-14T09:24:21;21.50;55.60
23102;DHT22;11720;51.214;22.574;2023-05-14T09:26:54;21.60;55.00
23102;DHT22;11720;51.214;22.574;2023-05-14T09:29:22;21.60;54.90
23102;DHT22;11720;51.214;22.574;2023-05-14T09:31:49;21.80;54.70
23102;DHT22;11720;51.214;22.574;2023-05-14T09:34:30;21.90;54.40
23102;DHT22;11720;51.214;22.574;2023-05-14T09:37:00;21.90;52.60
23102;DHT22;11720;51.214;22.574;2023-05-14T09:39:26;21.80;51.80
23102;DHT22;11720;51.214;22.574;2023-05-14T09:41:52;21.60;52.20
23102;DHT22;11720;51.214;22.574;2023-05-14T09:44:18;21.50;53.60
23102;DHT22;11720;51.214;22.574;2023-05-14T09:46:45;21.50;52.70
23102;DHT22;11720;51.214;22.574;2023-05-14T09:49:11;21.60;53.70
23102;DHT22;11720;51.214;22.574;2023-05-14T09:51:37;21.80;55.40
23102;DHT22;11720;51.214;22.574;2023-05-14T09:54:04;22.00;53.40
23102;DHT22;11720;51.214;22.574;2023-05-14T09:56:31;22.00;52.30
23102;DHT22;11720;51.214;22.574;2023-05-14T09:58:57;22.00;52.10
23102;DHT22;11720;51.214;22.574;2023-05-14T10:01:23;22.10;52.10
23102;DHT22;11720;51.214;22.574;2023-05-14T10:03:49;22.10;51.90
23102;DHT22;11720;51.214;22.574;2023-05-14T10:06:18;22.10;52.90
23102;DHT22;11720;51.214;22.574;2023-05-14T10:08:48;22.10;52.30
23102;DHT22;11720;51.214;22.574;2023-05-14T10:11:23;22.10;51.70
23102;DHT22;11720;51.214;22.574;2023-05-14T10:14:13;22.10;51.30
23102;DHT22;11720;51.214;22.574;2023-05-14T10:16:47;22.30;52.40
23102;DHT22;11720;51.214;22.574;2023-05-14T10:19:15;22.30;52.00
23102;DHT22;11720;51.214;22.574;2023-05-14T10:21:46;22.20;49.90
23102;DHT22;11720;51.214;22.574;2023-05-14T10:24:13;22.20;50.90
23102;DHT22;11720;51.214;22.574;2023-05-14T10:26:40;22.30;51.10
23102;DHT22;11720;51.214;22.574;2023-05-14T10:29:08;22.00;50.50
23102;DHT22;11720;51.214;22.574;2023-05-14T10:31:52;22.10;51.20
23102;DHT22;11720;51.214;22.574;2023-05-14T10:34:39;22.30;49.70
23102;DHT22;11720;51.214;22.574;2023-05-14T10:37:14;22.30;51.10
23102;DHT22;11720;51.214;22.574;2023-05-14T10:39:51;22.10;49.60
23102;DHT22;11720;51.214;22.574;2023-05-14T10:42:23;22.30;50.90
23102;DHT22;11720;51.214;22.574;2023-05-14T10:44:55;22.30;51.90
23102;DHT22;11720;51.214;22.574;2023-05-14T10:47:23;22.50;52.10
23102;DHT22;11720;51.214;22.574;2023-05-14T10:49:51;22.90;51.90
23102;DHT22;11720;51.214;22.574;2023-05-14T10:52:18;23.00;50.90
23102;DHT22;11720;51.214;22.574;2023-05-14T10:55:01;22.90;50.40
23102;DHT22;11720;51.214;22.574;2023-05-14T10:57:30;22.90;52.70
23102;DHT22;11720;51.214;22.574;2023-05-14T10:59:58;22.90;51.30
23102;DHT22;11720;51.214;22.574;2023-05-14T11:02:31;22.70;52.10
23102;DHT22;11720;51.214;22.574;2023-05-14T11:05:02;22.50;51.20
23102;DHT22;11720;51.214;22.574;2023-05-14T11:07:31;22.60;51.50
23102;DHT22;11720;51.214;22.574;2023-05-14T11:10:01;22.60;51.10
23102;DHT22;11720;51.214;22.574;2023-05-14T11:12:27;22.80;51.00
23102;DHT22;11720;51.214;22.574;2023-05-14T11:14:56;22.80;50.30
23102;DHT22;11720;51.214;22.574;2023-05-14T11:17:26;22.90;51.10
23102;DHT22;11720;51.214;22.574;2023-05-14T11:19:54;23.00;50.30
23102;DHT22;11720;51.214;22.574;2023-05-14T11:22:19;23.20;50.40
23102;DHT22;11720;51.214;22.574;2023-05-14T11:24:45;23.40;48.70
23102;DHT22;11720;51.214;22.574;2023-05-14T11:27:11;23.20;47.90
23102;DHT22;11720;51.214;22.574;2023-05-14T11:29:37;23.00;48.90
23102;DHT22;11720;51.214;22.574;2023-05-14T11:32:04;23.10;48.70
23102;DHT22;11720;51.214;22.574;2023-05-14T11:34:31;23.30;49.40
23102;DHT22;11720;51.214;22.574;2023-05-14T11:36:56;23.30;50.10
23102;DHT22;11720;51.214;22.574;2023-05-14T11:39:22;23.50;49.60
23102;DHT22;11720;51.214;22.574;2023-05-14T11:41:48;23.40;48.40
23102;DHT22;11720;51.214;22.574;2023-05-14T11:44:14;23.10;48.60
23102;DHT22;11720;51.214;22.574;2023-05-14T11:46:39;23.30;50.60
23102;DHT22;11720;51.214;22.574;2023-05-14T11:49:05;23.40;50.00
23102;DHT22;11720;51.214;22.574;2023-05-14T11:51:31;23.30;49.20
23102;DHT22;11720;51.214;22.574;2023-05-14T11:53:57;23.40;51.60
23102;DHT22;11720;51.214;22.574;2023-05-14T11:56:25;23.20;47.30
23102;DHT22;11720;51.214;22.574;2023-05-14T11:58:57;23.30;49.50
23102;DHT22;11720;51.214;22.574;2023-05-14T12:01:23;23.30;48.00
23102;DHT22;11720;51.214;22.574;2023-05-14T12:03:49;23.30;48.60
23102;DHT22;11720;51.214;22.574;2023-05-14T12:06:15;23.00;48.50
23102;DHT22;11720;51.214;22.574;2023-05-14T12:08:40;23.10;48.40
23102;DHT22;11720;51.214;22.574;2023-05-14T12:11:07;23.20;48.20
23102;DHT22;11720;51.214;22.574;2023-05-14T12:13:33;23.30;49.30
23102;DHT22;11720;51.214;22.574;2023-05-14T12:16:01;23.40;48.30
23102;DHT22;11720;51.214;22.574;2023-05-14T12:18:31;23.20;47.80
23102;DHT22;11720;51.214;22.574;2023-05-14T12:21:03;23.00;47.50
23102;DHT22;11720;51.214;22.574;2023-05-14T12:23:31;23.00;48.10
23102;DHT22;11720;51.214;22.574;2023-05-14T12:26:04;23.00;47.90
23102;DHT22;11720;51.214;22.574;2023-05-14T12:28:32;23.10;46.90
23102;DHT22;11720;51.214;22.574;2023-05-14T12:30:58;23.10;48.50
23102;DHT22;11720;51.214;22.574;2023-05-14T12:33:25;23.30;48.70
23102;DHT22;11720;51.214;22.574;2023-05-14T12:35:52;23.40;47.10
23102;DHT22;11720;51.214;22.574;2023-05-14T12:38:19;23.50;47.00
23102;DHT22;11720;51.214;22.574;2023-05-14T12:40:44;23.50;47.80
23102;DHT22;11720;51.214;22.574;2023-05-14T12:43:10;23.50;47.40
23102;DHT22;11720;51.214;22.574;2023-05-14T12:45:36;23.50;47.30
23102;DHT22;11720;51.214;22.574;2023-05-14T12:48:01;23.40;47.50
23102;DHT22;11720;51.214;22.574;2023-05-14T12:50:27;23.00;47.90
23102;DHT22;11720;51.214;22.574;2023-05-14T12:52:53;22.90;47.80
23102;DHT22;11720;51.214;22.574;2023-05-14T12:55:19;23.10;48.30
23102;DHT22;11720;51.214;22.574;2023-05-14T12:57:44;23.20;48.50
23102;DHT22;11720;51.214;22.574;2023-05-14T13:00:10;22.90;48.30
23102;DHT22;11720;51.214;22.574;2023-05-14T13:02:36;22.70;49.30
23102;DHT22;11720;51.214;22.574;2023-05-14T13:05:02;22.90;48.50
23102;DHT22;11720;51.214;22.574;2023-05-14T13:07:29;23.00;47.90
23102;DHT22;11720;51.214;22.574;2023-05-14T13:09:56;23.10;48.00
23102;DHT22;11720;51.214;22.574;2023-05-14T13:12:24;23.30;48.30
23102;DHT22;11720;51.214;22.574;2023-05-14T13:14:51;23.30;48.10
23102;DHT22;11720;51.214;22.574;2023-05-14T13:17:16;23.10;48.20
23102;DHT22;11720;51.214;22.574;2023-05-14T13:19:42;22.90;48.50
23102;DHT22;11720;51.214;22.574;2023-05-14T13:22:07;23.00;49.10
23102;DHT22;11720;51.214;22.574;2023-05-14T13:24:33;22.90;48.10
23102;DHT22;11720;51.214;22.574;2023-05-14T13:26:59;22.70;48.50
23102;DHT22;11720;51.214;22.574;2023-05-14T13:29:26;22.60;49.00
23102;DHT22;11720;51.214;22.574;2023-05-14T13:31:54;23.00;48.30
23102;DHT22;11720;51.214;22.574;2023-05-14T13:34:19;23.10;48.50
23102;DHT22;11720;51.214;22.574;2023-05-14T13:36:45;23.10;48.70
23102;DHT22;11720;51.214;22.574;2023-05-14T13:39:11;23.20;47.80
23102;DHT22;11720;51.214;22.574;2023-05-14T13:41:37;23.50;47.20
23102;DHT22;11720;51.214;22.574;2023-05-14T13:44:04;23.80;47.90
23102;DHT22;11720;51.214;22.574;2023-05-14T13:46:31;23.60;47.90
23102;DHT22;11720;51.214;22.574;2023-05-14T13:48:57;23.50;47.10
23102;DHT22;11720;51.214;22.574;2023-05-14T13:51:23;23.60;47.90
23102;DHT22;11720;51.214;22.574;2023-05-14T13:53:48;23.30;46.60
23102;DHT22;11720;51.214;22.574;2023-05-14T13:56:14;23.20;47.00
23102;DHT22;11720;51.214;22.574;2023-05-14T13:58:40;23.10;47.50
23102;DHT22;11720;51.214;22.574;2023-05-14T14:01:05;23.10;46.10
23102;DHT22;11720;51.214;22.574;2023-05-14T14:03:32;23.30;47.70
23102;DHT22;11720;51.214;22.574;2023-05-14T14:05:57;23.30;46.00
23102;DHT22;11720;51.214;22.574;2023-05-14T14:08:23;23.40;46.30
23102;DHT22;11720;51.214;22.574;2023-05-14T14:10:48;23.20;46.50
23102;DHT22;11720;51.214;22.574;2023-05-14T14:13:15;23.30;46.10
23102;DHT22;11720;51.214;22.574;2023-05-14T14:15:40;23.20;45.90
23102;DHT22;11720;51.214;22.574;2023-05-14T14:18:06;23.20;46.50
23102;DHT22;11720;51.214;22.574;2023-05-14T14:20:32;23.30;46.60
23102;DHT22;11720;51.214;22.574;2023-05-14T14:22:58;23.20;45.90
23102;DHT22;11720;51.214;22.574;2023-05-14T14:25:24;23.20;47.00
23102;DHT22;11720;51.214;22.574;2023-05-14T14:27:51;23.30;47.00
23102;DHT22;11720;51.214;22.574;2023-05-14T14:30:17;23.40;46.40
23102;DHT22;11720;51.214;22.574;2023-05-14T14:32:47;23.60;45.70
23102;DHT22;11720;51.214;22.574;2023-05-14T14:35:15;23.50;44.70
23102;DHT22;11720;51.214;22.574;2023-05-14T14:37:42;23.50;44.70
23102;DHT22;11720;51.214;22.574;2023-05-14T14:40:10;23.50;45.50
23102;DHT22;11720;51.214;22.574;2023-05-14T14:42:36;23.40;45.00
23102;DHT22;11720;51.214;22.574;2023-05-14T14:45:03;23.30;45.20
23102;DHT22;11720;51.214;22.574;2023-05-14T14:47:29;23.30;45.80
23102;DHT22;11720;51.214;22.574;2023-05-14T14:49:56;23.30;47.10
23102;DHT22;11720;51.214;22.574;2023-05-14T14:52:26;23.40;45.80
23102;DHT22;11720;51.214;22.574;2023-05-14T14:54:52;23.40;45.90
23102;DHT22;11720;51.214;22.574;2023-05-14T14:57:18;23.40;45.40
23102;DHT22;11720;51.214;22.574;2023-05-14T14:59:44;23.40;45.20
23102;DHT22;11720;51.214;22.574;2023-05-14T15:02:10;23.50;45.70
23102;DHT22;11720;51.214;22.574;2023-05-14T15:04:36;23.60;44.60
23102;DHT22;11720;51.214;22.574;2023-05-14T15:07:03;23.60;45.00
23102;DHT22;11720;51.214;22.574;2023-05-14T15:09:35;23.60;44.60
23102;DHT22;11720;51.214;22.574;2023-05-14T15:12:01;23.70;44.50
23102;DHT22;11720;51.214;22.574;2023-05-14T15:14:26;23.80;44.60
23102;DHT22;11720;51.214;22.574;2023-05-14T15:16:52;23.90;44.90
23102;DHT22;11720;51.214;22.574;2023-05-14T15:19:18;23.80;46.30
23102;DHT22;11720;51.214;22.574;2023-05-14T15:21:44;23.80;45.00
23102;DHT22;11720;51.214;22.574;2023-05-14T15:24:12;23.80;45.40
23102;DHT22;11720;51.214;22.574;2023-05-14T15:26:38;23.90;45.40
23102;DHT22;11720;51.214;22.574;2023-05-14T15:29:04;23.90;44.40
23102;DHT22;11720;51.214;22.574;2023-05-14T15:31:30;23.70;44.50
23102;DHT22;11720;51.214;22.574;2023-05-14T15:33:57;23.80;44.50
23102;DHT22;11720;51.214;22.574;2023-05-14T15:36:23;24.00;45.00
23102;DHT22;11720;51.214;22.574;2023-05-14T15:38:49;24.10;44.50
23102;DHT22;11720;51.214;22.574;2023-05-14T15:41:14;24.20;46.00
23102;DHT22;11720;51.214;22.574;2023-05-14T15:43:40;24.40;43.90
23102;DHT22;11720;51.214;22.574;2023-05-14T15:46:06;24.70;44.70
23102;DHT22;11720;51.214;22.574;2023-05-14T15:48:31;24.90;44.80
23102;DHT22;11720;51.214;22.574;2023-05-14T15:50:57;25.00;43.40
23102;DHT22;11720;51.214;22.574;2023-05-14T15:53:23;24.90;43.30
23102;DHT22;11720;51.214;22.574;2023-05-14T15:55:50;24.70;42.60
23102;DHT22;11720;51.214;22.574;2023-05-14T15:58:17;24.80;43.30
23102;DHT22;11720;51.214;22.574;2023-05-14T16:00:43;24.90;42.50
23102;DHT22;11720;51.214;22.574;2023-05-14T16:03:09;25.00;43.40
23102;DHT22;11720;51.214;22.574;2023-05-14T16:05:35;25.20;43.40
23102;DHT22;11720;51.214;22.574;2023-05-14T16:08:01;24.40;42.40
23102;DHT22;11720;51.214;22.574;2023-05-14T16:10:27;24.70;42.50
23102;DHT22;11720;51.214;22.574;2023-05-14T16:12:53;24.30;42.20
23102;DHT22;11720;51.214;22.574;2023-05-14T16:15:18;24.10;42.90